sensor_id;sensor_type;location;lat;lon;timestamp;pressure;altitude;pressure_sealevel;temperature;humidity
21547;BME280;41275;51.912;4.388;2023-04-06T00:03:54;101747.31;;;15.14;32.41
21547;BME280;41275;51.912;4.388;2023-04-06T00:09:15;101742.91;;;15.08;32.22
21547;BME280;41275;51.912;4.388;2023-04-06T00:14:37;101735.50;;;14.98;32.33
21547;BME280;41275;51.912;4.388;2023-04-06T00:19:58;101735.72;;;14.85;32.56
21547;BME280;41275;51.912;4.388;2023-04-06T00:25:19;101723.81;;;14.76;32.05
21547;BME280;41275;51.912;4.388;2023-04-06T00:30:40;101723.56;;;14.65;32.22
21547;BME280;41275;51.912;4.388;2023-04-06T00:36:02;101716.03;;;14.51;32.13
21547;BME280;41275;51.912;4.388;2023-04-06T00:41:23;101706.84;;;14.35;32.26
21547;BME280;41275;51.912;4.388;2023-04-06T00:46:44;101693.03;;;14.26;32.86
21547;BME280;41275;51.912;4.388;2023-04-06T00:52:06;101691.31;;;14.20;32.63
21547;BME280;41275;51.912;4.388;2023-04-06T00:57:27;101671.97;;;14.13;33.26
21547;BME280;41275;51.912;4.388;2023-04-06T01:02:48;101687.47;;;14.16;33.37
21547;BME280;41275;51.912;4.388;2023-04-06T01:08:10;101673.47;;;14.09;32.97
21547;BME280;41275;51.912;4.388;2023-04-06T01:13:31;101661.19;;;14.08;32.87
21547;BME280;41275;51.912;4.388;2023-04-06T01:18:52;101662.00;;;14.08;33.05
21547;BME280;41275;51.912;4.388;2023-04-06T01:24:13;101651.13;;;14.10;32.77
21547;BME280;41275;51.912;4.388;2023-04-06T01:29:35;101646.75;;;14.15;33.12
21547;BME280;41275;51.912;4.388;2023-04-06T01:34:56;101638.63;;;14.22;32.94
21547;BME280;41275;51.912;4.388;2023-04-06T01:40:17;101633.44;;;14.27;33.26
21547;BME280;41275;51.912;4.388;2023-04-06T01:45:38;101618.50;;;14.26;33.30
21547;BME280;41275;51.912;4.388;2023-04-06T01:50:59;101619.31;;;14.27;33.42
21547;BME280;41275;51.912;4.388;2023-04-06T01:56:21;101615.63;;;14.28;33.72
21547;BME280;41275;51.912;4.388;2023-04-06T02:01:42;101617.13;;;14.35;33.74
21547;BME280;41275;51.912;4.388;2023-04-06T02:07:03;101610.50;;;14.38;33.64
21547;BME280;41275;51.912;4.388;2023-04-06T02:12:25;101594.53;;;14.38;33.91
21547;BME280;41275;51.912;4.388;2023-04-06T02:17:46;101599.41;;;14.41;34.16
21547;BME280;41275;51.912;4.388;2023-04-06T02:23:07;101594.75;;;14.48;33.91
21547;BME280;41275;51.912;4.388;2023-04-06T02:28:28;101600.19;;;14.41;34.36
21547;BME280;41275;51.912;4.388;2023-04-06T02:33:50;101592.47;;;14.40;34.24
21547;BME280;41275;51.912;4.388;2023-04-06T02:39:11;101584.56;;;14.45;34.59
21547;BME280;41275;51.912;4.388;2023-04-06T02:44:33;101566.97;;;14.44;34.51
21547;BME280;41275;51.912;4.388;2023-04-06T02:49:54;101569.41;;;14.45;34.57
21547;BME280;41275;51.912;4.388;2023-04-06T02:55:16;101567.53;;;14.46;34.57
21547;BME280;41275;51.912;4.388;2023-04-06T03:00:37;101562.00;;;14.47;34.57
21547;BME280;41275;51.912;4.388;2023-04-06T03:05:58;101567.91;;;14.49;34.64
21547;BME280;41275;51.912;4.388;2023-04-06T03:11:21;101549.38;;;14.43;34.87
21547;BME280;41275;51.912;4.388;2023-04-06T03:16:42;101560.63;;;14.33;34.87
21547;BME280;41275;51.912;4.388;2023-04-06T03:22:03;101547.19;;;14.28;35.22
21547;BME280;41275;51.912;4.388;2023-04-06T03:27:24;101549.16;;;14.33;35.31
21547;BME280;41275;51.912;4.388;2023-04-06T03:32:45;101540.72;;;14.36;35.69
21547;BME280;41275;51.912;4.388;2023-04-06T03:38:07;101538.84;;;14.36;35.46
21547;BME280;41275;51.912;4.388;2023-04-06T03:43:28;101537.00;;;14.37;35.57
21547;BME280;41275;51.912;4.388;2023-04-06T03:48:49;101528.44;;;14.35;35.67
21547;BME280;41275;51.912;4.388;2023-04-06T03:54:10;101533.28;;;14.38;36.03
21547;BME280;41275;51.912;4.388;2023-04-06T03:59:31;101537.00;;;14.37;36.04
21547;BME280;41275;51.912;4.388;2023-04-06T04:04:53;101522.06;;;14.36;35.88
21547;BME280;41275;51.912;4.388;2023-04-06T04:10:14;101531.56;;;14.43;36.51
21547;BME280;41275;51.912;4.388;2023-04-06T04:15:35;101526.78;;;14.45;36.21
21547;BME280;41275;51.912;4.388;2023-04-06T04:20:57;101530.16;;;14.53;36.42
21547;BME280;41275;51.912;4.388;2023-04-06T04:26:18;101524.63;;;14.54;36.63
21547;BME280;41275;51.912;4.388;2023-04-06T04:31:39;101520.44;;;14.58;36.35
21547;BME280;41275;51.912;4.388;2023-04-06T04:37:00;101526.22;;;14.55;36.79
21547;BME280;41275;51.912;4.388;2023-04-06T04:42:23;101523.22;;;14.52;37.38
21547;BME280;41275;51.912;4.388;2023-04-06T04:47:44;101530.84;;;14.48;37.03
21547;BME280;41275;51.912;4.388;2023-04-06T04:53:05;101534.78;;;14.45;37.18
21547;BME280;41275;51.912;4.388;2023-04-06T04:58:27;101524.28;;;14.51;37.53
21547;BME280;41275;51.912;4.388;2023-04-06T05:03:48;101524.03;;;14.52;37.90
21547;BME280;41275;51.912;4.388;2023-04-06T05:09:09;101521.72;;;14.56;38.00
21547;BME280;41275;51.912;4.388;2023-04-06T05:14:31;101523.53;;;14.67;38.29
21547;BME280;41275;51.912;4.388;2023-04-06T05:19:53;101517.50;;;14.71;38.51
21547;BME280;41275;51.912;4.388;2023-04-06T05:25:15;101519.22;;;14.78;38.36
21547;BME280;41275;51.912;4.388;2023-04-06T05:30:36;101521.50;;;14.86;38.75
21547;BME280;41275;51.912;4.388;2023-04-06T05:35:57;101514.66;;;14.90;38.72
21547;BME280;41275;51.912;4.388;2023-04-06T05:41:18;101511.75;;;14.91;38.62
21547;BME280;41275;51.912;4.388;2023-04-06T05:46:41;101508.22;;;15.03;38.67
21547;BME280;41275;51.912;4.388;2023-04-06T05:52:02;101508.22;;;15.03;38.82
21547;BME280;41275;51.912;4.388;2023-04-06T05:57:23;101511.44;;;15.05;38.67
21547;BME280;41275;51.912;4.388;2023-04-06T06:02:44;101509.13;;;15.08;38.94
21547;BME280;41275;51.912;4.388;2023-04-06T06:08:07;101514.06;;;15.16;39.10
21547;BME280;41275;51.912;4.388;2023-04-06T06:13:28;101500.19;;;15.31;38.99
21547;BME280;41275;51.912;4.388;2023-04-06T06:18:49;101503.50;;;15.38;38.84
21547;BME280;41275;51.912;4.388;2023-04-06T06:24:11;101499.16;;;15.49;38.84
21547;BME280;41275;51.912;4.388;2023-04-06T06:29:32;101499.88;;;15.61;38.87
21547;BME280;41275;51.912;4.388;2023-04-06T06:34:53;101505.16;;;15.73;38.95
21547;BME280;41275;51.912;4.388;2023-04-06T06:40:14;101503.94;;;15.81;39.39
21547;BME280;41275;51.912;4.388;2023-04-06T06:45:36;101499.31;;;15.93;39.06
21547;BME280;41275;51.912;4.388;2023-04-06T06:50:58;101492.25;;;16.04;39.72
21547;BME280;41275;51.912;4.388;2023-04-06T06:56:19;101486.22;;;16.13;39.82
21547;BME280;41275;51.912;4.388;2023-04-06T07:01:40;101486.19;;;16.08;39.90
21547;BME280;41275;51.912;4.388;2023-04-06T07:07:02;101477.59;;;16.06;40.62
21547;BME280;41275;51.912;4.388;2023-04-06T07:12:24;101483.03;;;15.94;41.14
21547;BME280;41275;51.912;4.388;2023-04-06T07:17:45;101475.66;;;16.02;41.76
21547;BME280;41275;51.912;4.388;2023-04-06T07:23:06;101472.88;;;16.13;41.78
21547;BME280;41275;51.912;4.388;2023-04-06T07:28:28;101474.38;;;16.26;41.94
21547;BME280;41275;51.912;4.388;2023-04-06T07:33:49;101480.53;;;16.27;42.17
21547;BME280;41275;51.912;4.388;2023-04-06T07:39:11;101471.38;;;16.23;42.84
21547;BME280;41275;51.912;4.388;2023-04-06T07:44:32;101474.25;;;16.38;43.32
21547;BME280;41275;51.912;4.388;2023-04-06T07:49:54;101472.81;;;16.30;43.50
21547;BME280;41275;51.912;4.388;2023-04-06T07:55:16;101478.56;;;16.39;43.60
21547;BME280;41275;51.912;4.388;2023-04-06T08:00:38;101474.38;;;16.48;44.27
21547;BME280;41275;51.912;4.388;2023-04-06T08:05:59;101471.09;;;16.41;44.45
21547;BME280;41275;51.912;4.388;2023-04-06T08:11:20;101478.72;;;16.54;44.90
21547;BME280;41275;51.912;4.388;2023-04-06T08:16:42;101480.03;;;16.52;44.61
21547;BME280;41275;51.912;4.388;2023-04-06T08:22:03;101481.59;;;16.26;44.84
21547;BME280;41275;51.912;4.388;2023-04-06T08:27:24;101476.50;;;16.24;44.87
21547;BME280;41275;51.912;4.388;2023-04-06T08:32:46;101478.47;;;16.34;44.95
21547;BME280;41275;51.912;4.388;2023-04-06T08:38:07;101483.31;;;16.37;45.23
21547;BME280;41275;51.912;4.388;2023-04-06T08:43:29;101475.75;;;16.51;44.97
21547;BME280;41275;51.912;4.388;2023-04-06T08:48:51;101470.06;;;16.69;45.12
21547;BME280;41275;51.912;4.388;2023-04-06T08:54:12;101466.31;;;16.70;45.08
21547;BME280;41275;51.912;4.388;2023-04-06T08:59:34;101460.75;;;16.72;44.64
21547;BME280;41275;51.912;4.388;2023-04-06T09:04:57;101469.34;;;16.74;44.40
21547;BME280;41275;51.912;4.388;2023-04-06T09:10:18;101463.50;;;16.77;44.12
21547;BME280;41275;51.912;4.388;2023-04-06T09:15:39;101463.50;;;16.77;44.45
21547;BME280;41275;51.912;4.388;2023-04-06T09:21:05;101458.06;;;16.72;44.19
21547;BME280;41275;51.912;4.388;2023-04-06T09:26:26;101460.44;;;16.68;44.31
21547;BME280;41275;51.912;4.388;2023-04-06T09:31:48;101455.84;;;16.63;44.69
21547;BME280;41275;51.912;4.388;2023-04-06T09:37:15;101455.69;;;16.48;44.95
21547;BME280;41275;51.912;4.388;2023-04-06T09:42:37;101451.84;;;16.39;45.58
21547;BME280;41275;51.912;4.388;2023-04-06T09:47:59;101451.09;;;16.43;45.58
21547;BME280;41275;51.912;4.388;2023-04-06T09:53:21;101441.56;;;16.31;45.79
21547;BME280;41275;51.912;4.388;2023-04-06T09:58:47;101436.06;;;16.15;45.87
21547;BME280;41275;51.912;4.388;2023-04-06T10:04:21;101441.00;;;16.07;46.22
21547;BME280;41275;51.912;4.388;2023-04-06T10:09:47;101434.66;;;16.08;46.62
21547;BME280;41275;51.912;4.388;2023-04-06T10:15:10;101436.06;;;16.15;46.57
21547;BME280;41275;51.912;4.388;2023-04-06T10:20:50;101425.63;;;16.14;47.33
21547;BME280;41275;51.912;4.388;2023-04-06T10:26:14;101418.22;;;16.43;47.33
21547;BME280;41275;51.912;4.388;2023-04-06T10:31:40;101415.41;;;16.55;47.29
21547;BME280;41275;51.912;4.388;2023-04-06T10:37:16;101417.09;;;16.66;47.30
21547;BME280;41275;51.912;4.388;2023-04-06T10:42:39;101414.19;;;16.67;46.88
21547;BME280;41275;51.912;4.388;2023-04-06T10:48:01;101395.97;;;16.37;46.92
21547;BME280;41275;51.912;4.388;2023-04-06T10:53:33;101396.03;;;16.15;47.29
21547;BME280;41275;51.912;4.388;2023-04-06T10:58:55;101384.44;;;16.32;47.91
21547;BME280;41275;51.912;4.388;2023-04-06T11:04:20;101390.44;;;16.44;47.41
21547;BME280;41275;51.912;4.388;2023-04-06T11:09:41;101380.84;;;16.43;47.62
21547;BME280;41275;51.912;4.388;2023-04-06T11:15:03;101383.88;;;16.30;47.62
21547;BME280;41275;51.912;4.388;2023-04-06T11:20:25;101378.34;;;16.36;48.06
21547;BME280;41275;51.912;4.388;2023-04-06T11:25:51;101365.75;;;16.32;48.19
21547;BME280;41275;51.912;4.388;2023-04-06T11:31:12;101375.06;;;16.29;48.33
21547;BME280;41275;51.912;4.388;2023-04-06T11:36:33;101359.00;;;16.24;48.36
21547;BME280;41275;51.912;4.388;2023-04-06T11:42:02;101365.63;;;16.22;48.44
21547;BME280;41275;51.912;4.388;2023-04-06T11:47:32;101361.09;;;16.22;48.87
21547;BME280;41275;51.912;4.388;2023-04-06T11:53:00;101356.56;;;16.23;48.71
21547;BME280;41275;51.912;4.388;2023-04-06T11:58:22;101346.09;;;16.16;48.45
21547;BME280;41275;51.912;4.388;2023-04-06T12:03:43;101348.81;;;16.21;48.89
21547;BME280;41275;51.912;4.388;2023-04-06T12:09:04;101340.34;;;16.29;48.66
21547;BME280;41275;51.912;4.388;2023-04-06T12:14:25;101342.56;;;16.37;48.97
21547;BME280;41275;51.912;4.388;2023-04-06T12:19:47;101339.66;;;16.39;48.77
21547;BME280;41275;51.912;4.388;2023-04-06T12:25:08;101336.25;;;16.49;48.85
21547;BME280;41275;51.912;4.388;2023-04-06T12:30:29;101335.63;;;16.36;48.82
21547;BME280;41275;51.912;4.388;2023-04-06T12:35:51;101323.94;;;16.15;49.17
21547;BME280;41275;51.912;4.388;2023-04-06T12:41:12;101328.22;;;16.16;49.28
21547;BME280;41275;51.912;4.388;2023-04-06T12:46:34;101326.97;;;16.02;49.45
21547;BME280;41275;51.912;4.388;2023-04-06T12:51:55;101312.50;;;15.98;50.17
21547;BME280;41275;51.912;4.388;2023-04-06T12:57:17;101317.97;;;15.86;50.38
21547;BME280;41275;51.912;4.388;2023-04-06T13:02:38;101307.31;;;15.86;50.59
21547;BME280;41275;51.912;4.388;2023-04-06T13:07:59;101301.22;;;15.91;50.75
21547;BME280;41275;51.912;4.388;2023-04-06T13:13:28;101298.63;;;15.96;50.88
21547;BME280;41275;51.912;4.388;2023-04-06T13:18:49;101293.88;;;16.03;51.06
21547;BME280;41275;51.912;4.388;2023-04-06T13:24:12;101294.25;;;16.12;51.13
21547;BME280;41275;51.912;4.388;2023-04-06T13:29:34;101290.81;;;16.16;51.47
21547;BME280;41275;51.912;4.388;2023-04-06T13:34:55;101291.44;;;16.24;51.24
21547;BME280;41275;51.912;4.388;2023-04-06T13:40:16;101280.19;;;16.22;51.44
21547;BME280;41275;51.912;4.388;2023-04-06T13:45:38;101287.13;;;16.23;51.73
21547;BME280;41275;51.912;4.388;2023-04-06T13:51:10;101279.66;;;16.19;50.91
21547;BME280;41275;51.912;4.388;2023-04-06T13:56:32;101274.94;;;16.32;52.06
21547;BME280;41275;51.912;4.388;2023-04-06T14:01:53;101281.22;;;16.48;51.53
21547;BME280;41275;51.912;4.388;2023-04-06T14:07:14;101277.47;;;16.43;51.91
21547;BME280;41275;51.912;4.388;2023-04-06T14:12:35;101279.63;;;16.47;51.65
21547;BME280;41275;51.912;4.388;2023-04-06T14:17:57;101270.56;;;16.53;52.01
21547;BME280;41275;51.912;4.388;2023-04-06T14:23:18;101271.09;;;16.50;51.59
21547;BME280;41275;51.912;4.388;2023-04-06T14:28:39;101264.09;;;16.43;52.16
21547;BME280;41275;51.912;4.388;2023-04-06T14:34:02;101257.78;;;16.55;51.60
21547;BME280;41275;51.912;4.388;2023-04-06T14:39:25;101256.75;;;16.61;51.88
21547;BME280;41275;51.912;4.388;2023-04-06T14:44:46;101252.78;;;16.68;51.92
21547;BME280;41275;51.912;4.388;2023-04-06T14:50:09;101242.72;;;16.76;51.97
21547;BME280;41275;51.912;4.388;2023-04-06T14:55:31;101250.13;;;16.68;51.86
21547;BME280;41275;51.912;4.388;2023-04-06T15:00:59;101235.97;;;16.68;51.86
21547;BME280;41275;51.912;4.388;2023-04-06T15:06:21;101241.59;;;16.72;51.91
21547;BME280;41275;51.912;4.388;2023-04-06T15:11:42;101245.75;;;16.57;51.81
21547;BME280;41275;51.912;4.388;2023-04-06T15:17:03;101242.25;;;16.52;52.18
21547;BME280;41275;51.912;4.388;2023-04-06T15:22:24;101240.34;;;16.47;52.62
21547;BME280;41275;51.912;4.388;2023-04-06T15:27:46;101233.19;;;16.58;52.42
21547;BME280;41275;51.912;4.388;2023-04-06T15:33:08;101234.53;;;16.55;52.34
21547;BME280;41275;51.912;4.388;2023-04-06T15:38:29;101226.25;;;16.57;52.44
21547;BME280;41275;51.912;4.388;2023-04-06T15:43:52;101231.97;;;16.71;52.48
21547;BME280;41275;51.912;4.388;2023-04-06T15:49:13;101235.25;;;16.78;52.65
21547;BME280;41275;51.912;4.388;2023-04-06T15:54:34;101227.03;;;16.89;52.85
21547;BME280;41275;51.912;4.388;2023-04-06T16:00:01;101220.59;;;16.85;52.48
21547;BME280;41275;51.912;4.388;2023-04-06T16:05:22;101236.13;;;16.88;52.47
21547;BME280;41275;51.912;4.388;2023-04-06T16:10:43;101222.72;;;16.83;52.64
21547;BME280;41275;51.912;4.388;2023-04-06T16:16:04;101217.63;;;16.82;52.66
21547;BME280;41275;51.912;4.388;2023-04-06T16:21:26;101227.56;;;16.86;52.83
21547;BME280;41275;51.912;4.388;2023-04-06T16:26:48;101229.19;;;16.92;52.84
21547;BME280;41275;51.912;4.388;2023-04-06T16:32:10;101231.38;;;17.01;52.96
21547;BME280;41275;51.912;4.388;2023-04-06T16:37:32;101229.50;;;17.01;52.79
21547;BME280;41275;51.912;4.388;2023-04-06T16:42:53;101229.28;;;17.08;52.72
21547;BME280;41275;51.912;4.388;2023-04-06T16:48:15;101230.84;;;16.99;53.03
21547;BME280;41275;51.912;4.388;2023-04-06T16:53:37;101236.91;;;16.89;52.70
21547;BME280;41275;51.912;4.388;2023-04-06T16:58:58;101227.50;;;16.81;53.18
21547;BME280;41275;51.912;4.388;2023-04-06T17:04:20;101230.56;;;16.95;53.34
21547;BME280;41275;51.912;4.388;2023-04-06T17:09:42;101242.91;;;17.06;53.55
21547;BME280;41275;51.912;4.388;2023-04-06T17:15:03;101241.81;;;17.02;53.64
21547;BME280;41275;51.912;4.388;2023-04-06T17:20:24;101241.25;;;16.95;53.73
21547;BME280;41275;51.912;4.388;2023-04-06T17:25:45;101243.63;;;16.91;54.05
21547;BME280;41275;51.912;4.388;2023-04-06T17:31:08;101248.97;;;16.91;53.98
21547;BME280;41275;51.912;4.388;2023-04-06T17:36:30;101263.16;;;16.92;54.08
21547;BME280;41275;51.912;4.388;2023-04-06T17:41:52;101265.31;;;16.95;54.70
21547;BME280;41275;51.912;4.388;2023-04-06T17:47:16;101268.94;;;16.79;54.83
21547;BME280;41275;51.912;4.388;2023-04-06T17:52:37;101270.69;;;16.68;54.65
21547;BME280;41275;51.912;4.388;2023-04-06T17:57:58;101271.47;;;16.63;54.80
21547;BME280;41275;51.912;4.388;2023-04-06T18:03:19;101270.97;;;16.66;55.11
21547;BME280;41275;51.912;4.388;2023-04-06T18:08:41;101275.47;;;16.66;55.04
21547;BME280;41275;51.912;4.388;2023-04-06T18:14:08;101282.75;;;16.71;54.92
21547;BME280;41275;51.912;4.388;2023-04-06T18:19:32;101276.84;;;16.68;54.34
21547;BME280;41275;51.912;4.388;2023-04-06T18:24:54;101283.75;;;16.64;54.52
21547;BME280;41275;51.912;4.388;2023-04-06T18:30:15;101299.47;;;16.56;54.11
21547;BME280;41275;51.912;4.388;2023-04-06T18:35:37;101304.78;;;16.51;54.03
21547;BME280;41275;51.912;4.388;2023-04-06T18:40:59;101323.72;;;16.49;53.83
21547;BME280;41275;51.912;4.388;2023-04-06T18:46:20;101331.13;;;16.42;54.21
21547;BME280;41275;51.912;4.388;2023-04-06T18:51:42;101345.00;;;16.39;54.24
21547;BME280;41275;51.912;4.388;2023-04-06T18:57:03;101348.66;;;16.33;53.80
21547;BME280;41275;51.912;4.388;2023-04-06T19:02:25;101349.97;;;16.30;53.87
21547;BME280;41275;51.912;4.388;2023-04-06T19:07:46;101348.63;;;16.28;54.11
21547;BME280;41275;51.912;4.388;2023-04-06T19:13:12;101339.81;;;16.27;54.07
21547;BME280;41275;51.912;4.388;2023-04-06T19:18:33;101348.25;;;16.19;53.95
21547;BME280;41275;51.912;4.388;2023-04-06T19:23:54;101366.84;;;16.09;53.78
21547;BME280;41275;51.912;4.388;2023-04-06T19:29:15;101380.63;;;16.01;53.84
21547;BME280;41275;51.912;4.388;2023-04-06T19:34:37;101379.06;;;16.05;53.65
21547;BME280;41275;51.912;4.388;2023-04-06T19:39:58;101373.47;;;16.06;53.47
21547;BME280;41275;51.912;4.388;2023-04-06T19:45:20;101371.81;;;16.00;53.35
21547;BME280;41275;51.912;4.388;2023-04-06T19:50:41;101372.31;;;15.97;53.21
21547;BME280;41275;51.912;4.388;2023-04-06T19:56:02;101392.66;;;16.03;53.18
21547;BME280;41275;51.912;4.388;2023-04-06T20:01:24;101393.47;;;16.04;52.87
21547;BME280;41275;51.912;4.388;2023-04-06T20:06:45;101394.34;;;16.09;52.61
21547;BME280;41275;51.912;4.388;2023-04-06T20:12:07;101400.16;;;16.06;52.64
21547;BME280;41275;51.912;4.388;2023-04-06T20:17:28;101409.59;;;16.14;52.82
21547;BME280;41275;51.912;4.388;2023-04-06T20:22:49;101419.97;;;16.10;52.55
21547;BME280;41275;51.912;4.388;2023-04-06T20:28:10;101411.84;;;16.00;52.47
21547;BME280;41275;51.912;4.388;2023-04-06T20:33:35;101421.31;;;15.91;52.94
21547;BME280;41275;51.912;4.388;2023-04-06T20:38:56;101431.56;;;15.77;52.78
21547;BME280;41275;51.912;4.388;2023-04-06T20:44:18;101420.50;;;15.68;53.35
21547;BME280;41275;51.912;4.388;2023-04-06T20:49:42;101425.97;;;15.62;53.26
21547;BME280;41275;51.912;4.388;2023-04-06T20:55:03;101430.66;;;15.55;53.11
21547;BME280;41275;51.912;4.388;2023-04-06T21:00:25;101434.56;;;15.47;53.49
21547;BME280;41275;51.912;4.388;2023-04-06T21:05:51;101431.81;;;15.42;53.72
21547;BME280;41275;51.912;4.388;2023-04-06T21:11:12;101431.19;;;15.35;53.91
21547;BME280;41275;51.912;4.388;2023-04-06T21:16:33;101427.63;;;15.29;53.97
21547;BME280;41275;51.912;4.388;2023-04-06T21:21:55;101432.63;;;15.26;53.93
21547;BME280;41275;51.912;4.388;2023-04-06T21:27:16;101431.00;;;15.25;54.21
21547;BME280;41275;51.912;4.388;2023-04-06T21:32:37;101440.53;;;15.20;54.19
21547;BME280;41275;51.912;4.388;2023-04-06T21:37:58;101437.56;;;15.17;53.90
21547;BME280;41275;51.912;4.388;2023-04-06T21:43:19;101447.09;;;15.30;53.70
21547;BME280;41275;51.912;4.388;2023-04-06T21:48:41;101464.97;;;15.46;53.78
21547;BME280;41275;51.912;4.388;2023-04-06T21:54:02;101454.63;;;15.50;53.57
21547;BME280;41275;51.912;4.388;2023-04-06T21:59:23;101452.28;;;15.53;54.00
21547;BME280;41275;51.912;4.388;2023-04-06T22:04:44;101452.59;;;15.57;53.69
21547;BME280;41275;51.912;4.388;2023-04-06T22:10:08;101458.72;;;15.57;53.70
21547;BME280;41275;51.912;4.388;2023-04-06T22:15:29;101458.16;;;15.55;53.69
21547;BME280;41275;51.912;4.388;2023-04-06T22:20:51;101452.81;;;15.55;54.19
21547;BME280;41275;51.912;4.388;2023-04-06T22:26:12;101459.28;;;15.59;53.94
21547;BME280;41275;51.912;4.388;2023-04-06T22:31:34;101465.44;;;15.43;53.80
21547;BME280;41275;51.912;4.388;2023-04-06T22:36:55;101476.44;;;15.30;53.88
21547;BME280;41275;51.912;4.388;2023-04-06T22:42:17;101466.97;;;15.22;53.73
21547;BME280;41275;51.912;4.388;2023-04-06T22:47:38;101478.13;;;15.19;53.90
21547;BME280;41275;51.912;4.388;2023-04-06T22:53:01;101473.66;;;15.25;54.11
21547;BME280;41275;51.912;4.388;2023-04-06T22:58:22;101481.78;;;15.30;54.10
21547;BME280;41275;51.912;4.388;2023-04-06T23:03:43;101472.97;;;15.29;54.07
21547;BME280;41275;51.912;4.388;2023-04-06T23:09:04;101480.63;;;15.42;53.96
21547;BME280;41275;51.912;4.388;2023-04-06T23:14:26;101478.03;;;15.47;54.10
21547;BME280;41275;51.912;4.388;2023-04-06T23:19:47;101478.03;;;15.47;53.58
21547;BME280;41275;51.912;4.388;2023-04-06T23:25:08;101495.03;;;15.41;53.86
21547;BME280;41275;51.912;4.388;2023-04-06T23:30:29;101490.16;;;15.38;53.81
21547;BME280;41275;51.912;4.388;2023-04-06T23:35:51;101502.53;;;15.28;54.20
21547;BME280;41275;51.912;4.388;2023-04-06T23:41:13;101498.06;;;15.16;54.26
21547;BME280;41275;51.912;4.388;2023-04-06T23:46:34;101508.22;;;15.03;54.15
21547;BME280;41275;51.912;4.388;2023-04-06T23:51:56;101521.94;;;14.94;54.09
21547;BME280;41275;51.912;4.388;2023-04-06T23:57:17;101514.88;;;14.88;54.44
